Terre Haute International Hulman Field
KHUF : rendu visible

Aérodrome :











RETROUVEZ-NOUS SUR...

 
LOGIN :

S'inscrire | Disclaimer

   EN    FR    IT 

 









Légende :    VFR   VFR Marginal   IFR   IFR Intensif   IFR Très Intensif
Visi : 
Plafond : 
>= 8 km
>= 3000ft
5 à 8 km
1000 à 3000 ft
1500m à 5 km
500 à 1000 ft
800 à 1500m
200 à 500 ft
< 800m
< 200 ft
Symboles :   Orages  Brouillard  Fortes neiges  Fortes précipitations  Vent > 20 kt






- Altitude de l'aérodrome : 589 ft
- Code IATA : HUF


KHUF - Terre Haute International Hulman Field

DERNIER METAR :
  • 311953Z 10SM CLR 24/06 A3028 RMK AO2 SLP250 T02390061

METARs EXPIRÉS :
  • 311853Z 10SM CLR 23/06 A3029 RMK AO2 SLP254 T02280061
  • 311753Z 10SM CLR 22/06 A3030 RMK AO2 SLP259 T02220061 10222 20144 58009

TAF KHUF
Valide du 31 à 18h jusqu'au 01 à 18h UTC


311720Z 3118/0118 03007KT P6SM SKC
FM010100 VRB03KT P6SM SKC
FM011400 18006KT P6SM SCT200
FIR KZID / Amérique du Nord



MET'MAP, la Météo Aéronautique d'un coup d'oeil ! - Copyright ORBIFLY Décembre 2007 - Disclaimer

ORBIFLY MET'MAP TEAM :

Programmation & Développement : Alexandra Zaïnal
Sur une idée originale de : Baudouin d'Aumeries
Assistance à la programmation : Marc-Olivier Méhu
Soutien technique & logistique : Manuel Goepfert

Contact : metmap@orbifly.com




SOURCES & CREDITS :

   NOAA       Earth
Advisory